sensor_id;sensor_type;location;lat;lon;timestamp;temperature;humidity
71396;DHT22;59888;55.814;37.132;2023-02-24T00:01:38;-6.48;48.95
71396;DHT22;59888;55.814;37.132;2023-02-24T00:04:07;-6.48;49.15
71396;DHT22;59888;55.814;37.132;2023-02-24T00:06:35;-6.47;48.64
71396;DHT22;59888;55.814;37.132;2023-02-24T00:09:19;-6.50;49.07
71396;DHT22;59888;55.814;37.132;2023-02-24T00:11:52;-6.47;48.92
71396;DHT22;59888;55.814;37.132;2023-02-24T00:14:18;-6.41;48.96
71396;DHT22;59888;55.814;37.132;2023-02-24T00:16:45;-6.34;48.84
71396;DHT22;59888;55.814;37.132;2023-02-24T00:19:13;-6.31;48.70
71396;DHT22;59888;55.814;37.132;2023-02-24T00:21:41;-6.28;48.53
71396;DHT22;59888;55.814;37.132;2023-02-24T00:24:08;-6.21;48.13
71396;DHT22;59888;55.814;37.132;2023-02-24T00:26:34;-6.23;48.67
71396;DHT22;59888;55.814;37.132;2023-02-24T00:29:03;-6.21;48.68
71396;DHT22;59888;55.814;37.132;2023-02-24T00:31:30;-6.15;48.58
71396;DHT22;59888;55.814;37.132;2023-02-24T00:33:58;-6.04;48.44
71396;DHT22;59888;55.814;37.132;2023-02-24T00:36:26;-6.00;47.57
71396;DHT22;59888;55.814;37.132;2023-02-24T00:39:02;-6.04;48.05
71396;DHT22;59888;55.814;37.132;2023-02-24T00:41:40;-6.08;47.91
71396;DHT22;59888;55.814;37.132;2023-02-24T00:44:11;-6.05;47.84
71396;DHT22;59888;55.814;37.132;2023-02-24T00:46:42;-6.02;47.92
71396;DHT22;59888;55.814;37.132;2023-02-24T00:49:16;-6.01;47.89
71396;DHT22;59888;55.814;37.132;2023-02-24T00:51:44;-5.97;47.74
71396;DHT22;59888;55.814;37.132;2023-02-24T00:54:10;-5.96;47.50
71396;DHT22;59888;55.814;37.132;2023-02-24T00:56:43;-6.03;47.93
71396;DHT22;59888;55.814;37.132;2023-02-24T00:59:11;-5.99;47.41
71396;DHT22;59888;55.814;37.132;2023-02-24T01:01:38;-6.04;47.99
71396;DHT22;59888;55.814;37.132;2023-02-24T01:04:05;-6.03;47.70
71396;DHT22;59888;55.814;37.132;2023-02-24T01:06:37;-6.05;47.88
71396;DHT22;59888;55.814;37.132;2023-02-24T01:09:04;-6.03;47.82
71396;DHT22;59888;55.814;37.132;2023-02-24T01:11:34;-5.97;47.73
71396;DHT22;59888;55.814;37.132;2023-02-24T01:14:21;-5.92;47.50
71396;DHT22;59888;55.814;37.132;2023-02-24T01:16:48;-5.94;47.31
71396;DHT22;59888;55.814;37.132;2023-02-24T01:19:21;-5.98;47.61
71396;DHT22;59888;55.814;37.132;2023-02-24T01:21:47;-5.99;47.45
71396;DHT22;59888;55.814;37.132;2023-02-24T01:24:23;-5.97;47.75
71396;DHT22;59888;55.814;37.132;2023-02-24T01:26:50;-5.96;47.40
71396;DHT22;59888;55.814;37.132;2023-02-24T01:29:15;-6.00;47.29
71396;DHT22;59888;55.814;37.132;2023-02-24T01:31:43;-6.02;47.48
71396;DHT22;59888;55.814;37.132;2023-02-24T01:34:11;-6.02;47.93
71396;DHT22;59888;55.814;37.132;2023-02-24T01:36:40;-5.98;47.58
71396;DHT22;59888;55.814;37.132;2023-02-24T01:39:08;-5.97;47.49
71396;DHT22;59888;55.814;37.132;2023-02-24T01:41:41;-5.94;47.29
71396;DHT22;59888;55.814;37.132;2023-02-24T01:46:58;-5.93;47.41
71396;DHT22;59888;55.814;37.132;2023-02-24T01:49:46;-5.89;47.30
71396;DHT22;59888;55.814;37.132;2023-02-24T01:55:03;-5.78;47.31
71396;DHT22;59888;55.814;37.132;2023-02-24T01:57:32;-5.79;47.12
71396;DHT22;59888;55.814;37.132;2023-02-24T02:00:02;-5.71;47.26
71396;DHT22;59888;55.814;37.132;2023-02-24T02:02:42;-5.62;47.22
71396;DHT22;59888;55.814;37.132;2023-02-24T02:05:11;-5.61;47.02
71396;DHT22;59888;55.814;37.132;2023-02-24T02:07:38;-5.55;47.15
71396;DHT22;59888;55.814;37.132;2023-02-24T02:10:06;-5.48;47.03
71396;DHT22;59888;55.814;37.132;2023-02-24T02:12:35;-5.48;46.96
71396;DHT22;59888;55.814;37.132;2023-02-24T02:15:03;-5.46;46.92
71396;DHT22;59888;55.814;37.132;2023-02-24T02:29:00;-5.24;46.73
71396;DHT22;59888;55.814;37.132;2023-02-24T02:34:23;-5.18;46.47
71396;DHT22;59888;55.814;37.132;2023-02-24T02:37:30;-5.18;46.62
71396;DHT22;59888;55.814;37.132;2023-02-24T02:42:43;-5.09;46.59
71396;DHT22;59888;55.814;37.132;2023-02-24T02:48:06;-5.09;46.48
71396;DHT22;59888;55.814;37.132;2023-02-24T02:50:47;-5.03;46.41
71396;DHT22;59888;55.814;37.132;2023-02-24T02:53:22;-5.08;46.50
71396;DHT22;59888;55.814;37.132;2023-02-24T02:56:28;-5.05;46.31
71396;DHT22;59888;55.814;37.132;2023-02-24T02:58:52;-5.12;46.51
71396;DHT22;59888;55.814;37.132;2023-02-24T03:01:21;-5.15;46.44
71396;DHT22;59888;55.814;37.132;2023-02-24T03:03:52;-5.19;46.58
71396;DHT22;59888;55.814;37.132;2023-02-24T03:06:31;-5.19;46.68
71396;DHT22;59888;55.814;37.132;2023-02-24T03:11:40;-5.27;46.64
71396;DHT22;59888;55.814;37.132;2023-02-24T03:14:09;-5.26;46.79
71396;DHT22;59888;55.814;37.132;2023-02-24T03:16:38;-5.27;46.80
71396;DHT22;59888;55.814;37.132;2023-02-24T03:19:07;-5.25;46.79
71396;DHT22;59888;55.814;37.132;2023-02-24T03:21:42;-5.26;46.82
71396;DHT22;59888;55.814;37.132;2023-02-24T03:24:12;-5.23;46.96
71396;DHT22;59888;55.814;37.132;2023-02-24T03:26:50;-5.19;46.96
71396;DHT22;59888;55.814;37.132;2023-02-24T03:32:20;-5.19;46.95
71396;DHT22;59888;55.814;37.132;2023-02-24T03:37:22;-5.19;46.89
71396;DHT22;59888;55.814;37.132;2023-02-24T03:40:00;-5.23;46.89
71396;DHT22;59888;55.814;37.132;2023-02-24T03:42:33;-5.25;46.83
71396;DHT22;59888;55.814;37.132;2023-02-24T03:45:00;-5.29;46.86
71396;DHT22;59888;55.814;37.132;2023-02-24T03:47:31;-5.38;47.04
71396;DHT22;59888;55.814;37.132;2023-02-24T03:49:57;-5.41;47.09
71396;DHT22;59888;55.814;37.132;2023-02-24T04:06:31;-5.70;47.40
71396;DHT22;59888;55.814;37.132;2023-02-24T04:09:14;-5.70;47.46
71396;DHT22;59888;55.814;37.132;2023-02-24T04:12:03;-5.75;47.91
71396;DHT22;59888;55.814;37.132;2023-02-24T04:14:48;-5.73;47.77
71396;DHT22;59888;55.814;37.132;2023-02-24T04:17:21;-5.67;47.83
71396;DHT22;59888;55.814;37.132;2023-02-24T04:19:50;-5.55;47.68
71396;DHT22;59888;55.814;37.132;2023-02-24T04:22:20;-5.50;47.75
71396;DHT22;59888;55.814;37.132;2023-02-24T04:24:52;-5.50;47.55
71396;DHT22;59888;55.814;37.132;2023-02-24T04:27:20;-5.50;47.74
71396;DHT22;59888;55.814;37.132;2023-02-24T04:29:54;-5.53;47.76
71396;DHT22;59888;55.814;37.132;2023-02-24T04:32:26;-5.50;47.38
71396;DHT22;59888;55.814;37.132;2023-02-24T04:35:00;-5.49;47.69
71396;DHT22;59888;55.814;37.132;2023-02-24T04:37:29;-5.45;47.41
71396;DHT22;59888;55.814;37.132;2023-02-24T04:40:00;-5.52;47.61
71396;DHT22;59888;55.814;37.132;2023-02-24T04:42:27;-5.48;47.61
71396;DHT22;59888;55.814;37.132;2023-02-24T04:44:53;-5.49;47.36
71396;DHT22;59888;55.814;37.132;2023-02-24T04:47:23;-5.54;48.09
71396;DHT22;59888;55.814;37.132;2023-02-24T04:49:49;-5.53;48.18
71396;DHT22;59888;55.814;37.132;2023-02-24T04:52:15;-5.50;47.95
71396;DHT22;59888;55.814;37.132;2023-02-24T04:54:41;-5.45;47.98
71396;DHT22;59888;55.814;37.132;2023-02-24T04:57:09;-5.46;47.99
71396;DHT22;59888;55.814;37.132;2023-02-24T04:59:35;-5.41;47.36
71396;DHT22;59888;55.814;37.132;2023-02-24T05:02:02;-5.40;48.18
71396;DHT22;59888;55.814;37.132;2023-02-24T05:04:28;-5.43;48.26
71396;DHT22;59888;55.814;37.132;2023-02-24T05:06:56;-5.39;47.89
71396;DHT22;59888;55.814;37.132;2023-02-24T05:09:22;-5.29;47.92
71396;DHT22;59888;55.814;37.132;2023-02-24T05:11:50;-5.20;47.89
71396;DHT22;59888;55.814;37.132;2023-02-24T05:14:18;-5.16;47.79
71396;DHT22;59888;55.814;37.132;2023-02-24T05:16:46;-5.17;48.37
71396;DHT22;59888;55.814;37.132;2023-02-24T05:19:15;-5.14;47.86
71396;DHT22;59888;55.814;37.132;2023-02-24T05:22:00;-5.01;47.94
71396;DHT22;59888;55.814;37.132;2023-02-24T05:24:28;-4.95;47.82
71396;DHT22;59888;55.814;37.132;2023-02-24T05:26:56;-4.94;48.11
71396;DHT22;59888;55.814;37.132;2023-02-24T05:29:29;-4.84;47.60
71396;DHT22;59888;55.814;37.132;2023-02-24T05:31:56;-4.81;47.53
71396;DHT22;59888;55.814;37.132;2023-02-24T05:34:29;-4.86;47.81
71396;DHT22;59888;55.814;37.132;2023-02-24T05:36:57;-4.81;47.56
71396;DHT22;59888;55.814;37.132;2023-02-24T05:39:23;-4.83;47.63
71396;DHT22;59888;55.814;37.132;2023-02-24T05:41:51;-4.84;47.72
71396;DHT22;59888;55.814;37.132;2023-02-24T05:44:20;-4.75;47.84
71396;DHT22;59888;55.814;37.132;2023-02-24T05:46:55;-4.76;48.47
71396;DHT22;59888;55.814;37.132;2023-02-24T05:49:26;-4.79;48.79
71396;DHT22;59888;55.814;37.132;2023-02-24T05:51:56;-4.78;48.20
71396;DHT22;59888;55.814;37.132;2023-02-24T05:54:26;-4.83;49.79
71396;DHT22;59888;55.814;37.132;2023-02-24T05:56:59;-4.87;49.71
71396;DHT22;59888;55.814;37.132;2023-02-24T05:59:26;-4.85;49.89
71396;DHT22;59888;55.814;37.132;2023-02-24T06:01:58;-4.72;50.13
71396;DHT22;59888;55.814;37.132;2023-02-24T06:04:36;-4.70;50.47
71396;DHT22;59888;55.814;37.132;2023-02-24T06:07:12;-4.75;53.36
71396;DHT22;59888;55.814;37.132;2023-02-24T06:09:39;-4.70;53.30
71396;DHT22;59888;55.814;37.132;2023-02-24T06:12:08;-4.72;52.85
71396;DHT22;59888;55.814;37.132;2023-02-24T06:14:34;-4.69;51.68
71396;DHT22;59888;55.814;37.132;2023-02-24T06:17:00;-4.59;51.23
71396;DHT22;59888;55.814;37.132;2023-02-24T06:19:29;-4.54;52.09
71396;DHT22;59888;55.814;37.132;2023-02-24T06:21:59;-4.53;51.01
71396;DHT22;59888;55.814;37.132;2023-02-24T06:24:30;-4.55;51.49
71396;DHT22;59888;55.814;37.132;2023-02-24T06:26:57;-4.50;51.39
71396;DHT22;59888;55.814;37.132;2023-02-24T06:29:37;-4.53;50.63
71396;DHT22;59888;55.814;37.132;2023-02-24T06:32:03;-4.55;51.75
71396;DHT22;59888;55.814;37.132;2023-02-24T06:34:38;-4.51;52.52
71396;DHT22;59888;55.814;37.132;2023-02-24T06:37:06;-4.56;52.91
71396;DHT22;59888;55.814;37.132;2023-02-24T06:39:32;-4.43;51.53
71396;DHT22;59888;55.814;37.132;2023-02-24T06:42:00;-4.29;53.20
71396;DHT22;59888;55.814;37.132;2023-02-24T06:44:30;-4.27;51.66
71396;DHT22;59888;55.814;37.132;2023-02-24T06:46:58;-4.29;51.98
71396;DHT22;59888;55.814;37.132;2023-02-24T06:49:25;-4.22;52.39
71396;DHT22;59888;55.814;37.132;2023-02-24T06:51:51;-4.21;52.07
71396;DHT22;59888;55.814;37.132;2023-02-24T06:54:20;-4.16;52.33
71396;DHT22;59888;55.814;37.132;2023-02-24T06:56:50;-4.08;52.57
71396;DHT22;59888;55.814;37.132;2023-02-24T06:59:16;-4.07;52.35
71396;DHT22;59888;55.814;37.132;2023-02-24T07:01:49;-4.04;53.19
71396;DHT22;59888;55.814;37.132;2023-02-24T07:04:20;-4.14;53.32
71396;DHT22;59888;55.814;37.132;2023-02-24T07:06:51;-4.12;54.16
71396;DHT22;59888;55.814;37.132;2023-02-24T07:09:21;-4.01;53.27
71396;DHT22;59888;55.814;37.132;2023-02-24T07:11:50;-3.82;52.78
71396;DHT22;59888;55.814;37.132;2023-02-24T07:14:19;-3.80;51.40
71396;DHT22;59888;55.814;37.132;2023-02-24T07:16:45;-3.80;51.95
71396;DHT22;59888;55.814;37.132;2023-02-24T07:19:14;-3.78;52.11
71396;DHT22;59888;55.814;37.132;2023-02-24T07:21:44;-3.74;51.75
71396;DHT22;59888;55.814;37.132;2023-02-24T07:24:16;-3.69;51.93
71396;DHT22;59888;55.814;37.132;2023-02-24T07:27:06;-3.56;52.43
71396;DHT22;59888;55.814;37.132;2023-02-24T07:29:33;-3.54;52.00
71396;DHT22;59888;55.814;37.132;2023-02-24T07:32:04;-3.52;51.94
71396;DHT22;59888;55.814;37.132;2023-02-24T07:34:35;-3.51;52.80
71396;DHT22;59888;55.814;37.132;2023-02-24T07:37:04;-3.38;52.51
71396;DHT22;59888;55.814;37.132;2023-02-24T07:39:33;-3.21;52.32
71396;DHT22;59888;55.814;37.132;2023-02-24T07:41:59;-3.22;53.56
71396;DHT22;59888;55.814;37.132;2023-02-24T07:44:30;-3.32;53.13
71396;DHT22;59888;55.814;37.132;2023-02-24T07:46:57;-3.23;52.89
71396;DHT22;59888;55.814;37.132;2023-02-24T07:49:24;-3.12;52.67
71396;DHT22;59888;55.814;37.132;2023-02-24T07:51:53;-3.08;52.57
71396;DHT22;59888;55.814;37.132;2023-02-24T07:54:23;-3.04;52.30
71396;DHT22;59888;55.814;37.132;2023-02-24T07:56:50;-3.02;52.12
71396;DHT22;59888;55.814;37.132;2023-02-24T07:59:28;-2.95;51.90
71396;DHT22;59888;55.814;37.132;2023-02-24T08:01:55;-2.90;52.22
71396;DHT22;59888;55.814;37.132;2023-02-24T08:04:27;-2.95;51.91
71396;DHT22;59888;55.814;37.132;2023-02-24T08:06:54;-3.01;52.76
71396;DHT22;59888;55.814;37.132;2023-02-24T08:09:30;-3.00;51.74
71396;DHT22;59888;55.814;37.132;2023-02-24T08:12:31;-2.98;53.91
71396;DHT22;59888;55.814;37.132;2023-02-24T08:15:00;-2.77;52.69
71396;DHT22;59888;55.814;37.132;2023-02-24T08:17:34;-2.68;52.66
71396;DHT22;59888;55.814;37.132;2023-02-24T08:20:00;-2.62;52.62
71396;DHT22;59888;55.814;37.132;2023-02-24T08:22:38;-2.56;53.21
71396;DHT22;59888;55.814;37.132;2023-02-24T08:25:09;-2.48;53.81
71396;DHT22;59888;55.814;37.132;2023-02-24T08:27:44;-2.45;53.52
71396;DHT22;59888;55.814;37.132;2023-02-24T08:30:11;-2.43;53.19
71396;DHT22;59888;55.814;37.132;2023-02-24T08:32:52;-2.22;51.59
71396;DHT22;59888;55.814;37.132;2023-02-24T08:35:32;-2.18;52.11
71396;DHT22;59888;55.814;37.132;2023-02-24T08:40:38;-2.09;51.66
71396;DHT22;59888;55.814;37.132;2023-02-24T08:43:12;-2.06;51.95
71396;DHT22;59888;55.814;37.132;2023-02-24T08:45:47;-1.95;52.06
71396;DHT22;59888;55.814;37.132;2023-02-24T08:48:17;-1.95;52.07
71396;DHT22;59888;55.814;37.132;2023-02-24T08:50:54;-2.03;53.95
71396;DHT22;59888;55.814;37.132;2023-02-24T08:53:22;-1.92;53.26
71396;DHT22;59888;55.814;37.132;2023-02-24T08:55:48;-1.91;51.27
71396;DHT22;59888;55.814;37.132;2023-02-24T08:58:20;-1.92;52.15
71396;DHT22;59888;55.814;37.132;2023-02-24T09:01:00;-1.86;51.66
71396;DHT22;59888;55.814;37.132;2023-02-24T09:03:28;-1.90;51.48
71396;DHT22;59888;55.814;37.132;2023-02-24T09:06:05;-1.93;52.47
71396;DHT22;59888;55.814;37.132;2023-02-24T09:08:33;-1.88;52.72
71396;DHT22;59888;55.814;37.132;2023-02-24T09:11:00;-2.13;64.05
71396;DHT22;59888;55.814;37.132;2023-02-24T09:13:28;-2.14;58.56
71396;DHT22;59888;55.814;37.132;2023-02-24T09:16:02;-2.26;54.21
71396;DHT22;59888;55.814;37.132;2023-02-24T09:18:29;-2.24;53.22
71396;DHT22;59888;55.814;37.132;2023-02-24T09:20:57;-2.20;54.25
71396;DHT22;59888;55.814;37.132;2023-02-24T09:23:42;-2.05;54.83
71396;DHT22;59888;55.814;37.132;2023-02-24T09:26:11;-1.87;54.94
71396;DHT22;59888;55.814;37.132;2023-02-24T09:28:39;-1.78;52.59
71396;DHT22;59888;55.814;37.132;2023-02-24T09:31:20;-1.80;53.52
71396;DHT22;59888;55.814;37.132;2023-02-24T09:33:49;-1.78;53.31
71396;DHT22;59888;55.814;37.132;2023-02-24T09:36:20;-1.64;53.76
71396;DHT22;59888;55.814;37.132;2023-02-24T09:38:53;-1.60;52.98
71396;DHT22;59888;55.814;37.132;2023-02-24T09:41:39;-1.48;53.26
71396;DHT22;59888;55.814;37.132;2023-02-24T09:49:51;-1.45;52.53
71396;DHT22;59888;55.814;37.132;2023-02-24T09:52:23;-1.43;52.35
71396;DHT22;59888;55.814;37.132;2023-02-24T09:55:18;-1.43;53.24
71396;DHT22;59888;55.814;37.132;2023-02-24T09:57:57;-1.33;52.87
71396;DHT22;59888;55.814;37.132;2023-02-24T10:03:46;-1.18;54.17
71396;DHT22;59888;55.814;37.132;2023-02-24T10:06:18;-1.09;55.02
71396;DHT22;59888;55.814;37.132;2023-02-24T10:09:11;-0.99;54.11
71396;DHT22;59888;55.814;37.132;2023-02-24T10:11:41;-0.94;54.85
71396;DHT22;59888;55.814;37.132;2023-02-24T10:16:48;-0.91;52.86
71396;DHT22;59888;55.814;37.132;2023-02-24T10:19:35;-0.87;53.14
71396;DHT22;59888;55.814;37.132;2023-02-24T10:22:18;-0.87;52.72
71396;DHT22;59888;55.814;37.132;2023-02-24T10:25:03;-0.84;52.03
71396;DHT22;59888;55.814;37.132;2023-02-24T10:33:37;-0.84;52.20
71396;DHT22;59888;55.814;37.132;2023-02-24T10:36:13;-0.96;53.10
71396;DHT22;59888;55.814;37.132;2023-02-24T10:38:42;-1.09;53.43
71396;DHT22;59888;55.814;37.132;2023-02-24T10:41:13;-1.03;52.44
71396;DHT22;59888;55.814;37.132;2023-02-24T10:43:40;-0.87;52.79
71396;DHT22;59888;55.814;37.132;2023-02-24T10:46:27;-0.79;53.10
71396;DHT22;59888;55.814;37.132;2023-02-24T10:49:00;-0.75;53.43
71396;DHT22;59888;55.814;37.132;2023-02-24T10:51:39;-0.53;52.72
71396;DHT22;59888;55.814;37.132;2023-02-24T10:54:27;-0.44;51.84
71396;DHT22;59888;55.814;37.132;2023-02-24T10:57:11;-0.54;52.01
71396;DHT22;59888;55.814;37.132;2023-02-24T10:59:53;-0.62;52.40
71396;DHT22;59888;55.814;37.132;2023-02-24T11:02:38;-0.49;52.15
71396;DHT22;59888;55.814;37.132;2023-02-24T11:05:23;-0.38;52.07
71396;DHT22;59888;55.814;37.132;2023-02-24T11:10:40;-0.13;52.62
71396;DHT22;59888;55.814;37.132;2023-02-24T11:13:27;-0.13;51.77
71396;DHT22;59888;55.814;37.132;2023-02-24T11:16:11;-0.34;51.31
71396;DHT22;59888;55.814;37.132;2023-02-24T11:18:56;-0.35;52.14
71396;DHT22;59888;55.814;37.132;2023-02-24T11:21:25;-0.34;52.07
71396;DHT22;59888;55.814;37.132;2023-02-24T11:24:00;-0.37;51.74
71396;DHT22;59888;55.814;37.132;2023-02-24T11:26:38;-0.42;52.01
71396;DHT22;59888;55.814;37.132;2023-02-24T11:38:29;-0.27;52.36
71396;DHT22;59888;55.814;37.132;2023-02-24T11:43:41;-0.34;51.84
71396;DHT22;59888;55.814;37.132;2023-02-24T11:46:15;-0.47;52.49
71396;DHT22;59888;55.814;37.132;2023-02-24T11:48:48;-0.37;52.75
71396;DHT22;59888;55.814;37.132;2023-02-24T11:51:19;-0.28;52.37
71396;DHT22;59888;55.814;37.132;2023-02-24T11:53:57;-0.09;51.94
71396;DHT22;59888;55.814;37.132;2023-02-24T12:03:53;0.05;51.67
71396;DHT22;59888;55.814;37.132;2023-02-24T12:07:07;0.14;51.64
71396;DHT22;59888;55.814;37.132;2023-02-24T12:09:17;0.03;51.89
71396;DHT22;59888;55.814;37.132;2023-02-24T12:11:59;-0.01;52.07
71396;DHT22;59888;55.814;37.132;2023-02-24T12:14:54;-0.05;51.79
71396;DHT22;59888;55.814;37.132;2023-02-24T12:17:20;-0.00;51.62
71396;DHT22;59888;55.814;37.132;2023-02-24T12:22:32;-0.25;52.33
71396;DHT22;59888;55.814;37.132;2023-02-24T12:24:59;-0.29;51.43
71396;DHT22;59888;55.814;37.132;2023-02-24T12:46:35;-0.74;52.44
71396;DHT22;59888;55.814;37.132;2023-02-24T12:59:53;-0.82;53.40
71396;DHT22;59888;55.814;37.132;2023-02-24T13:02:23;-0.81;53.72
71396;DHT22;59888;55.814;37.132;2023-02-24T13:07:35;-0.73;53.50
71396;DHT22;59888;55.814;37.132;2023-02-24T13:12:49;-0.69;54.01
71396;DHT22;59888;55.814;37.132;2023-02-24T13:15:35;-0.62;53.69
71396;DHT22;59888;55.814;37.132;2023-02-24T13:18:00;-0.62;53.49
71396;DHT22;59888;55.814;37.132;2023-02-24T13:20:34;-0.67;53.93
71396;DHT22;59888;55.814;37.132;2023-02-24T13:23:18;-0.66;54.00
71396;DHT22;59888;55.814;37.132;2023-02-24T13:25:52;-0.64;53.70
71396;DHT22;59888;55.814;37.132;2023-02-24T13:28:30;-0.65;53.66
71396;DHT22;59888;55.814;37.132;2023-02-24T13:33:34;-0.58;53.77
71396;DHT22;59888;55.814;37.132;2023-02-24T13:36:22;-0.51;53.50
71396;DHT22;59888;55.814;37.132;2023-02-24T13:38:51;-0.47;53.77
71396;DHT22;59888;55.814;37.132;2023-02-24T13:49:41;-0.53;54.07
71396;DHT22;59888;55.814;37.132;2023-02-24T14:01:07;-0.49;53.82
71396;DHT22;59888;55.814;37.132;2023-02-24T14:03:35;-0.55;53.90
71396;DHT22;59888;55.814;37.132;2023-02-24T14:06:02;-0.60;53.93
71396;DHT22;59888;55.814;37.132;2023-02-24T14:08:38;-0.60;53.87
71396;DHT22;59888;55.814;37.132;2023-02-24T14:11:06;-0.60;54.31
71396;DHT22;59888;55.814;37.132;2023-02-24T14:13:35;-0.69;53.51
71396;DHT22;59888;55.814;37.132;2023-02-24T14:16:05;-0.79;54.77
71396;DHT22;59888;55.814;37.132;2023-02-24T14:18:32;-0.84;54.65
71396;DHT22;59888;55.814;37.132;2023-02-24T14:20:58;-0.85;54.48
71396;DHT22;59888;55.814;37.132;2023-02-24T14:25:57;-0.82;54.74
71396;DHT22;59888;55.814;37.132;2023-02-24T14:28:29;-0.79;54.89
71396;DHT22;59888;55.814;37.132;2023-02-24T14:30:58;-0.75;54.94
71396;DHT22;59888;55.814;37.132;2023-02-24T14:33:28;-0.74;54.38
71396;DHT22;59888;55.814;37.132;2023-02-24T14:35:54;-0.77;54.75
71396;DHT22;59888;55.814;37.132;2023-02-24T14:40:54;-0.77;54.39
71396;DHT22;59888;55.814;37.132;2023-02-24T14:43:20;-0.80;55.02
71396;DHT22;59888;55.814;37.132;2023-02-24T14:45:49;-0.77;55.17
71396;DHT22;59888;55.814;37.132;2023-02-24T14:48:29;-0.79;55.40
71396;DHT22;59888;55.814;37.132;2023-02-24T14:51:05;-0.84;55.29
71396;DHT22;59888;55.814;37.132;2023-02-24T14:53:37;-0.86;55.85
71396;DHT22;59888;55.814;37.132;2023-02-24T14:56:06;-0.83;55.91
71396;DHT22;59888;55.814;37.132;2023-02-24T15:01:20;-0.76;56.36
71396;DHT22;59888;55.814;37.132;2023-02-24T15:03:59;-0.80;56.52
71396;DHT22;59888;55.814;37.132;2023-02-24T15:06:31;-0.80;56.45
71396;DHT22;59888;55.814;37.132;2023-02-24T15:09:12;-0.81;56.48
71396;DHT22;59888;55.814;37.132;2023-02-24T15:11:40;-0.80;56.27
71396;DHT22;59888;55.814;37.132;2023-02-24T15:14:25;-0.80;56.85
71396;DHT22;59888;55.814;37.132;2023-02-24T15:16:58;-0.81;57.01
71396;DHT22;59888;55.814;37.132;2023-02-24T15:21:52;-0.79;56.87
71396;DHT22;59888;55.814;37.132;2023-02-24T15:24:26;-0.79;56.39
71396;DHT22;59888;55.814;37.132;2023-02-24T15:27:01;-0.80;56.31
71396;DHT22;59888;55.814;37.132;2023-02-24T15:29:29;-0.77;57.04
71396;DHT22;59888;55.814;37.132;2023-02-24T15:31:57;-0.75;57.13
71396;DHT22;59888;55.814;37.132;2023-02-24T15:34:35;-0.71;57.48
71396;DHT22;59888;55.814;37.132;2023-02-24T15:37:15;-0.71;56.87
71396;DHT22;59888;55.814;37.132;2023-02-24T15:39:45;-0.69;57.16
71396;DHT22;59888;55.814;37.132;2023-02-24T15:42:30;-0.62;57.58
71396;DHT22;59888;55.814;37.132;2023-02-24T15:45:31;-0.60;57.47
71396;DHT22;59888;55.814;37.132;2023-02-24T15:48:15;-0.57;57.43
71396;DHT22;59888;55.814;37.132;2023-02-24T15:50:43;-0.56;57.30
71396;DHT22;59888;55.814;37.132;2023-02-24T15:53:09;-0.53;57.32
71396;DHT22;59888;55.814;37.132;2023-02-24T15:55:40;-0.56;57.06
71396;DHT22;59888;55.814;37.132;2023-02-24T15:58:10;-0.54;57.75
71396;DHT22;59888;55.814;37.132;2023-02-24T16:00:38;-0.59;57.15
71396;DHT22;59888;55.814;37.132;2023-02-24T16:03:03;-0.59;57.35
71396;DHT22;59888;55.814;37.132;2023-02-24T16:05:34;-0.52;57.51
71396;DHT22;59888;55.814;37.132;2023-02-24T16:08:00;-0.49;57.25
71396;DHT22;59888;55.814;37.132;2023-02-24T16:10:28;-0.50;57.32
71396;DHT22;59888;55.814;37.132;2023-02-24T16:12:58;-0.45;57.37
71396;DHT22;59888;55.814;37.132;2023-02-24T16:15:44;-0.45;57.58
71396;DHT22;59888;55.814;37.132;2023-02-24T16:18:13;-0.46;57.24
71396;DHT22;59888;55.814;37.132;2023-02-24T16:20:46;-0.49;57.16
71396;DHT22;59888;55.814;37.132;2023-02-24T16:23:20;-0.43;57.31
71396;DHT22;59888;55.814;37.132;2023-02-24T16:25:48;-0.43;57.00
71396;DHT22;59888;55.814;37.132;2023-02-24T16:28:18;-0.42;57.42
71396;DHT22;59888;55.814;37.132;2023-02-24T16:30:45;-0.43;57.31
71396;DHT22;59888;55.814;37.132;2023-02-24T16:33:12;-0.42;57.57
71396;DHT22;59888;55.814;37.132;2023-02-24T16:35:40;-0.37;57.16
71396;DHT22;59888;55.814;37.132;2023-02-24T16:38:16;-0.36;57.29
71396;DHT22;59888;55.814;37.132;2023-02-24T16:40:44;-0.39;57.03
71396;DHT22;59888;55.814;37.132;2023-02-24T16:43:11;-0.41;57.48
71396;DHT22;59888;55.814;37.132;2023-02-24T16:45:38;-0.38;57.42
71396;DHT22;59888;55.814;37.132;2023-02-24T16:48:08;-0.39;57.47
71396;DHT22;59888;55.814;37.132;2023-02-24T16:50:38;-0.39;57.61
71396;DHT22;59888;55.814;37.132;2023-02-24T16:53:05;-0.35;57.62
71396;DHT22;59888;55.814;37.132;2023-02-24T16:55:32;-0.34;57.58
71396;DHT22;59888;55.814;37.132;2023-02-24T16:57:58;-0.30;57.08
71396;DHT22;59888;55.814;37.132;2023-02-24T17:00:25;-0.30;57.61
71396;DHT22;59888;55.814;37.132;2023-02-24T17:02:51;-0.32;57.53
71396;DHT22;59888;55.814;37.132;2023-02-24T17:05:23;-0.30;57.35
71396;DHT22;59888;55.814;37.132;2023-02-24T17:07:51;-0.29;57.71
71396;DHT22;59888;55.814;37.132;2023-02-24T17:10:18;-0.26;57.62
71396;DHT22;59888;55.814;37.132;2023-02-24T17:12:44;-0.24;57.32
71396;DHT22;59888;55.814;37.132;2023-02-24T17:15:17;-0.26;57.45
71396;DHT22;59888;55.814;37.132;2023-02-24T17:17:43;-0.28;57.51
71396;DHT22;59888;55.814;37.132;2023-02-24T17:20:17;-0.29;57.78
71396;DHT22;59888;55.814;37.132;2023-02-24T17:22:44;-0.32;57.88
71396;DHT22;59888;55.814;37.132;2023-02-24T17:25:25;-0.32;58.20
71396;DHT22;59888;55.814;37.132;2023-02-24T17:27:52;-0.30;57.90
71396;DHT22;59888;55.814;37.132;2023-02-24T17:30:22;-0.28;57.75
71396;DHT22;59888;55.814;37.132;2023-02-24T17:32:48;-0.28;58.01
71396;DHT22;59888;55.814;37.132;2023-02-24T17:35:14;-0.26;57.67
71396;DHT22;59888;55.814;37.132;2023-02-24T17:37:40;-0.27;58.29
71396;DHT22;59888;55.814;37.132;2023-02-24T17:40:07;-0.27;58.06
71396;DHT22;59888;55.814;37.132;2023-02-24T17:42:36;-0.27;58.35
71396;DHT22;59888;55.814;37.132;2023-02-24T17:45:04;-0.26;58.07
71396;DHT22;59888;55.814;37.132;2023-02-24T17:47:31;-0.21;57.93
71396;DHT22;59888;55.814;37.132;2023-02-24T17:49:57;-0.20;57.93
71396;DHT22;59888;55.814;37.132;2023-02-24T17:52:23;-0.16;58.09
71396;DHT22;59888;55.814;37.132;2023-02-24T17:54:49;-0.15;57.96
71396;DHT22;59888;55.814;37.132;2023-02-24T17:57:15;-0.14;57.67
71396;DHT22;59888;55.814;37.132;2023-02-24T17:59:42;-0.15;57.86
71396;DHT22;59888;55.814;37.132;2023-02-24T18:02:10;-0.15;57.74
71396;DHT22;59888;55.814;37.132;2023-02-24T18:04:36;-0.15;57.84
71396;DHT22;59888;55.814;37.132;2023-02-24T18:07:02;-0.15;57.93
71396;DHT22;59888;55.814;37.132;2023-02-24T18:09:30;-0.17;57.84
71396;DHT22;59888;55.814;37.132;2023-02-24T18:11:56;-0.25;57.87
71396;DHT22;59888;55.814;37.132;2023-02-24T18:14:27;-0.28;58.02
71396;DHT22;59888;55.814;37.132;2023-02-24T18:16:53;-0.23;58.32
71396;DHT22;59888;55.814;37.132;2023-02-24T18:19:19;-0.14;58.15
71396;DHT22;59888;55.814;37.132;2023-02-24T18:21:45;-0.11;58.19